sensor_id;sensor_type;location;lat;lon;timestamp;P1;durP1;ratioP1;P2;durP2;ratioP2
47153;SDS011;32907;41.412;2.164;2023-11-19T00:01:15;8.27;;;5.22;;
47153;SDS011;32907;41.412;2.164;2023-11-19T00:03:44;7.97;;;5.05;;
47153;SDS011;32907;41.412;2.164;2023-11-19T00:06:13;7.10;;;5.07;;
47153;SDS011;32907;41.412;2.164;2023-11-19T00:08:41;7.85;;;4.85;;
47153;SDS011;32907;41.412;2.164;2023-11-19T00:11:09;6.22;;;4.47;;
47153;SDS011;32907;41.412;2.164;2023-11-19T00:13:37;9.38;;;4.90;;
47153;SDS011;32907;41.412;2.164;2023-11-19T00:16:05;7.50;;;4.88;;
47153;SDS011;32907;41.412;2.164;2023-11-19T00:18:35;8.82;;;5.32;;
47153;SDS011;32907;41.412;2.164;2023-11-19T00:21:06;7.78;;;4.95;;
47153;SDS011;32907;41.412;2.164;2023-11-19T00:23:36;7.90;;;4.68;;
47153;SDS011;32907;41.412;2.164;2023-11-19T00:26:04;7.68;;;4.82;;
47153;SDS011;32907;41.412;2.164;2023-11-19T00:28:33;6.72;;;4.45;;
47153;SDS011;32907;41.412;2.164;2023-11-19T00:31:01;5.75;;;3.92;;
47153;SDS011;32907;41.412;2.164;2023-11-19T00:33:30;7.10;;;4.30;;
47153;SDS011;32907;41.412;2.164;2023-11-19T00:35:59;5.75;;;3.45;;
47153;SDS011;32907;41.412;2.164;2023-11-19T00:38:27;7.18;;;4.15;;
47153;SDS011;32907;41.412;2.164;2023-11-19T00:40:55;7.35;;;4.13;;
47153;SDS011;32907;41.412;2.164;2023-11-19T00:43:24;6.32;;;4.43;;
47153;SDS011;32907;41.412;2.164;2023-11-19T00:45:53;6.25;;;4.88;;
47153;SDS011;32907;41.412;2.164;2023-11-19T00:48:23;6.40;;;4.53;;
47153;SDS011;32907;41.412;2.164;2023-11-19T00:50:51;9.48;;;5.22;;
47153;SDS011;32907;41.412;2.164;2023-11-19T00:53:19;7.70;;;4.82;;
47153;SDS011;32907;41.412;2.164;2023-11-19T00:55:48;6.18;;;4.10;;
47153;SDS011;32907;41.412;2.164;2023-11-19T00:58:16;6.32;;;4.15;;
47153;SDS011;32907;41.412;2.164;2023-11-19T01:00:45;4.93;;;3.72;;
47153;SDS011;32907;41.412;2.164;2023-11-19T01:03:14;5.35;;;3.70;;
47153;SDS011;32907;41.412;2.164;2023-11-19T01:05:43;5.93;;;3.70;;
47153;SDS011;32907;41.412;2.164;2023-11-19T01:08:12;4.80;;;3.60;;
47153;SDS011;32907;41.412;2.164;2023-11-19T01:10:41;6.28;;;3.58;;
47153;SDS011;32907;41.412;2.164;2023-11-19T01:13:09;11.02;;;7.93;;
47153;SDS011;32907;41.412;2.164;2023-11-19T01:15:38;10.40;;;6.97;;
47153;SDS011;32907;41.412;2.164;2023-11-19T01:18:08;8.23;;;5.75;;
47153;SDS011;32907;41.412;2.164;2023-11-19T01:20:37;8.88;;;6.65;;
47153;SDS011;32907;41.412;2.164;2023-11-19T01:23:05;10.13;;;7.03;;
47153;SDS011;32907;41.412;2.164;2023-11-19T01:25:33;7.68;;;5.93;;
47153;SDS011;32907;41.412;2.164;2023-11-19T01:28:01;8.30;;;6.20;;
47153;SDS011;32907;41.412;2.164;2023-11-19T01:30:30;9.57;;;6.20;;
47153;SDS011;32907;41.412;2.164;2023-11-19T01:32:58;8.65;;;6.30;;
47153;SDS011;32907;41.412;2.164;2023-11-19T01:35:26;5.68;;;4.43;;
47153;SDS011;32907;41.412;2.164;2023-11-19T01:37:55;5.75;;;3.55;;
47153;SDS011;32907;41.412;2.164;2023-11-19T01:40:24;4.72;;;3.20;;
47153;SDS011;32907;41.412;2.164;2023-11-19T01:42:53;7.45;;;3.75;;
47153;SDS011;32907;41.412;2.164;2023-11-19T01:45:27;5.93;;;3.92;;
47153;SDS011;32907;41.412;2.164;2023-11-19T01:47:57;5.05;;;3.40;;
47153;SDS011;32907;41.412;2.164;2023-11-19T01:50:26;5.40;;;4.20;;
47153;SDS011;32907;41.412;2.164;2023-11-19T01:52:56;7.75;;;4.00;;
47153;SDS011;32907;41.412;2.164;2023-11-19T01:55:25;4.32;;;3.28;;
47153;SDS011;32907;41.412;2.164;2023-11-19T01:57:58;5.70;;;4.20;;
47153;SDS011;32907;41.412;2.164;2023-11-19T02:00:28;8.18;;;5.25;;
47153;SDS011;32907;41.412;2.164;2023-11-19T02:02:56;7.10;;;5.00;;
47153;SDS011;32907;41.412;2.164;2023-11-19T02:05:25;6.35;;;4.85;;
47153;SDS011;32907;41.412;2.164;2023-11-19T02:07:54;7.55;;;4.40;;
47153;SDS011;32907;41.412;2.164;2023-11-19T02:10:22;5.28;;;3.90;;
47153;SDS011;32907;41.412;2.164;2023-11-19T02:12:52;5.53;;;4.03;;
47153;SDS011;32907;41.412;2.164;2023-11-19T02:15:33;5.05;;;3.58;;
47153;SDS011;32907;41.412;2.164;2023-11-19T02:18:17;6.22;;;4.28;;
47153;SDS011;32907;41.412;2.164;2023-11-19T02:20:47;7.57;;;4.75;;
47153;SDS011;32907;41.412;2.164;2023-11-19T02:23:17;6.30;;;4.63;;
47153;SDS011;32907;41.412;2.164;2023-11-19T02:25:50;5.70;;;3.95;;
47153;SDS011;32907;41.412;2.164;2023-11-19T02:28:27;6.07;;;3.95;;
47153;SDS011;32907;41.412;2.164;2023-11-19T02:30:56;7.75;;;3.75;;
47153;SDS011;32907;41.412;2.164;2023-11-19T02:33:24;5.50;;;3.20;;
47153;SDS011;32907;41.412;2.164;2023-11-19T02:35:52;4.93;;;3.15;;
47153;SDS011;32907;41.412;2.164;2023-11-19T02:38:21;6.72;;;3.75;;
47153;SDS011;32907;41.412;2.164;2023-11-19T02:40:50;5.32;;;3.38;;
47153;SDS011;32907;41.412;2.164;2023-11-19T02:43:18;4.82;;;3.42;;
47153;SDS011;32907;41.412;2.164;2023-11-19T02:45:46;5.22;;;3.50;;
47153;SDS011;32907;41.412;2.164;2023-11-19T02:48:15;6.43;;;3.20;;
47153;SDS011;32907;41.412;2.164;2023-11-19T02:50:43;6.55;;;3.03;;
47153;SDS011;32907;41.412;2.164;2023-11-19T02:53:11;5.18;;;3.08;;
47153;SDS011;32907;41.412;2.164;2023-11-19T02:55:40;4.55;;;2.67;;
47153;SDS011;32907;41.412;2.164;2023-11-19T02:58:16;5.15;;;2.88;;
47153;SDS011;32907;41.412;2.164;2023-11-19T03:00:56;5.55;;;3.00;;
47153;SDS011;32907;41.412;2.164;2023-11-19T03:03:25;4.07;;;2.78;;
47153;SDS011;32907;41.412;2.164;2023-11-19T03:06:06;4.20;;;2.63;;
47153;SDS011;32907;41.412;2.164;2023-11-19T03:08:36;5.15;;;2.90;;
47153;SDS011;32907;41.412;2.164;2023-11-19T03:11:05;4.55;;;2.65;;
47153;SDS011;32907;41.412;2.164;2023-11-19T03:13:34;4.57;;;2.65;;
47153;SDS011;32907;41.412;2.164;2023-11-19T03:16:02;4.68;;;2.55;;
47153;SDS011;32907;41.412;2.164;2023-11-19T03:18:30;6.45;;;2.83;;
47153;SDS011;32907;41.412;2.164;2023-11-19T03:20:59;4.47;;;2.30;;
47153;SDS011;32907;41.412;2.164;2023-11-19T03:23:27;4.13;;;2.50;;
47153;SDS011;32907;41.412;2.164;2023-11-19T03:25:55;3.45;;;2.33;;
47153;SDS011;32907;41.412;2.164;2023-11-19T03:28:24;4.30;;;2.45;;
47153;SDS011;32907;41.412;2.164;2023-11-19T03:30:52;3.85;;;2.03;;
47153;SDS011;32907;41.412;2.164;2023-11-19T03:33:21;3.60;;;1.98;;
47153;SDS011;32907;41.412;2.164;2023-11-19T03:35:49;3.63;;;2.30;;
47153;SDS011;32907;41.412;2.164;2023-11-19T03:38:19;4.40;;;1.88;;
47153;SDS011;32907;41.412;2.164;2023-11-19T03:40:48;4.05;;;1.90;;
47153;SDS011;32907;41.412;2.164;2023-11-19T03:43:16;3.90;;;2.30;;
47153;SDS011;32907;41.412;2.164;2023-11-19T03:45:47;4.80;;;2.28;;
47153;SDS011;32907;41.412;2.164;2023-11-19T03:48:15;4.40;;;2.55;;
47153;SDS011;32907;41.412;2.164;2023-11-19T03:50:43;4.38;;;2.30;;
47153;SDS011;32907;41.412;2.164;2023-11-19T03:53:12;4.07;;;2.47;;
47153;SDS011;32907;41.412;2.164;2023-11-19T03:55:41;4.38;;;2.28;;
47153;SDS011;32907;41.412;2.164;2023-11-19T03:58:10;4.63;;;2.10;;
47153;SDS011;32907;41.412;2.164;2023-11-19T04:00:38;2.90;;;1.98;;
47153;SDS011;32907;41.412;2.164;2023-11-19T04:03:08;4.25;;;2.40;;
47153;SDS011;32907;41.412;2.164;2023-11-19T04:05:37;3.22;;;2.00;;
47153;SDS011;32907;41.412;2.164;2023-11-19T04:08:05;5.00;;;2.38;;
47153;SDS011;32907;41.412;2.164;2023-11-19T04:10:33;7.20;;;2.80;;
47153;SDS011;32907;41.412;2.164;2023-11-19T04:13:01;3.83;;;2.35;;
47153;SDS011;32907;41.412;2.164;2023-11-19T04:15:29;4.00;;;2.20;;
47153;SDS011;32907;41.412;2.164;2023-11-19T04:17:58;4.75;;;2.20;;
47153;SDS011;32907;41.412;2.164;2023-11-19T04:20:26;4.13;;;2.08;;
47153;SDS011;32907;41.412;2.164;2023-11-19T04:22:55;3.70;;;2.22;;
47153;SDS011;32907;41.412;2.164;2023-11-19T04:25:23;2.63;;;2.00;;
47153;SDS011;32907;41.412;2.164;2023-11-19T04:27:53;3.53;;;2.08;;
47153;SDS011;32907;41.412;2.164;2023-11-19T04:30:21;3.92;;;2.25;;
47153;SDS011;32907;41.412;2.164;2023-11-19T04:32:49;3.97;;;2.53;;
47153;SDS011;32907;41.412;2.164;2023-11-19T04:35:17;3.78;;;1.95;;
47153;SDS011;32907;41.412;2.164;2023-11-19T04:37:46;2.53;;;1.52;;
47153;SDS011;32907;41.412;2.164;2023-11-19T04:40:15;4.05;;;1.98;;
47153;SDS011;32907;41.412;2.164;2023-11-19T04:42:43;4.35;;;2.28;;
47153;SDS011;32907;41.412;2.164;2023-11-19T04:45:11;5.35;;;2.42;;
47153;SDS011;32907;41.412;2.164;2023-11-19T04:47:39;4.20;;;1.98;;
47153;SDS011;32907;41.412;2.164;2023-11-19T04:50:08;3.38;;;2.10;;
47153;SDS011;32907;41.412;2.164;2023-11-19T04:52:39;3.22;;;2.10;;
47153;SDS011;32907;41.412;2.164;2023-11-19T04:55:08;3.65;;;2.40;;
47153;SDS011;32907;41.412;2.164;2023-11-19T04:57:39;3.03;;;2.30;;
47153;SDS011;32907;41.412;2.164;2023-11-19T05:00:08;5.75;;;2.22;;
47153;SDS011;32907;41.412;2.164;2023-11-19T05:02:41;3.95;;;2.33;;
47153;SDS011;32907;41.412;2.164;2023-11-19T05:05:10;5.65;;;2.30;;
47153;SDS011;32907;41.412;2.164;2023-11-19T05:07:38;3.92;;;2.47;;
47153;SDS011;32907;41.412;2.164;2023-11-19T05:10:06;3.28;;;2.10;;
47153;SDS011;32907;41.412;2.164;2023-11-19T05:12:35;4.25;;;2.10;;
47153;SDS011;32907;41.412;2.164;2023-11-19T05:15:03;3.97;;;2.28;;
47153;SDS011;32907;41.412;2.164;2023-11-19T05:17:32;4.85;;;2.65;;
47153;SDS011;32907;41.412;2.164;2023-11-19T05:20:00;3.63;;;2.40;;
47153;SDS011;32907;41.412;2.164;2023-11-19T05:22:28;4.25;;;2.20;;
47153;SDS011;32907;41.412;2.164;2023-11-19T05:24:56;4.28;;;2.55;;
47153;SDS011;32907;41.412;2.164;2023-11-19T05:27:24;3.88;;;2.13;;
47153;SDS011;32907;41.412;2.164;2023-11-19T05:29:54;4.60;;;2.53;;
47153;SDS011;32907;41.412;2.164;2023-11-19T05:32:22;3.00;;;2.13;;
47153;SDS011;32907;41.412;2.164;2023-11-19T05:34:50;5.57;;;2.42;;
47153;SDS011;32907;41.412;2.164;2023-11-19T05:37:19;5.95;;;2.50;;
47153;SDS011;32907;41.412;2.164;2023-11-19T05:39:47;5.03;;;2.63;;
47153;SDS011;32907;41.412;2.164;2023-11-19T05:42:16;3.78;;;2.40;;
47153;SDS011;32907;41.412;2.164;2023-11-19T05:44:44;4.47;;;2.55;;
47153;SDS011;32907;41.412;2.164;2023-11-19T05:47:12;5.30;;;2.72;;
47153;SDS011;32907;41.412;2.164;2023-11-19T05:49:40;4.32;;;2.40;;
47153;SDS011;32907;41.412;2.164;2023-11-19T05:52:08;3.53;;;2.40;;
47153;SDS011;32907;41.412;2.164;2023-11-19T05:54:38;5.38;;;2.83;;
47153;SDS011;32907;41.412;2.164;2023-11-19T05:57:07;4.85;;;2.90;;
47153;SDS011;32907;41.412;2.164;2023-11-19T05:59:40;5.47;;;3.13;;
47153;SDS011;32907;41.412;2.164;2023-11-19T06:02:09;5.00;;;2.90;;
47153;SDS011;32907;41.412;2.164;2023-11-19T06:04:37;4.05;;;3.00;;
47153;SDS011;32907;41.412;2.164;2023-11-19T06:07:05;4.82;;;2.90;;
47153;SDS011;32907;41.412;2.164;2023-11-19T06:09:33;4.32;;;3.03;;
47153;SDS011;32907;41.412;2.164;2023-11-19T06:12:02;4.63;;;2.70;;
47153;SDS011;32907;41.412;2.164;2023-11-19T06:14:31;5.60;;;3.20;;
47153;SDS011;32907;41.412;2.164;2023-11-19T06:16:59;3.45;;;2.60;;
47153;SDS011;32907;41.412;2.164;2023-11-19T06:19:28;4.40;;;2.95;;
47153;SDS011;32907;41.412;2.164;2023-11-19T06:21:57;4.50;;;3.00;;
47153;SDS011;32907;41.412;2.164;2023-11-19T06:24:25;5.45;;;2.90;;
47153;SDS011;32907;41.412;2.164;2023-11-19T06:26:53;5.40;;;2.95;;
47153;SDS011;32907;41.412;2.164;2023-11-19T06:29:21;5.13;;;3.13;;
47153;SDS011;32907;41.412;2.164;2023-11-19T06:31:49;5.20;;;3.17;;
47153;SDS011;32907;41.412;2.164;2023-11-19T06:34:17;4.57;;;3.25;;
47153;SDS011;32907;41.412;2.164;2023-11-19T06:36:45;4.20;;;2.75;;
47153;SDS011;32907;41.412;2.164;2023-11-19T06:39:14;5.47;;;3.20;;
47153;SDS011;32907;41.412;2.164;2023-11-19T06:41:46;6.80;;;3.10;;
47153;SDS011;32907;41.412;2.164;2023-11-19T06:44:14;6.32;;;3.60;;
47153;SDS011;32907;41.412;2.164;2023-11-19T06:46:42;4.05;;;3.00;;
47153;SDS011;32907;41.412;2.164;2023-11-19T06:49:10;6.25;;;3.72;;
47153;SDS011;32907;41.412;2.164;2023-11-19T06:51:41;6.50;;;3.53;;
47153;SDS011;32907;41.412;2.164;2023-11-19T06:54:11;4.88;;;3.40;;
47153;SDS011;32907;41.412;2.164;2023-11-19T06:56:40;7.43;;;3.55;;
47153;SDS011;32907;41.412;2.164;2023-11-19T06:59:09;5.78;;;3.30;;
47153;SDS011;32907;41.412;2.164;2023-11-19T07:01:37;6.07;;;3.33;;
47153;SDS011;32907;41.412;2.164;2023-11-19T07:04:06;4.63;;;3.63;;
47153;SDS011;32907;41.412;2.164;2023-11-19T07:06:37;4.97;;;3.50;;
47153;SDS011;32907;41.412;2.164;2023-11-19T07:09:05;4.45;;;3.75;;
47153;SDS011;32907;41.412;2.164;2023-11-19T07:11:39;4.82;;;3.60;;
47153;SDS011;32907;41.412;2.164;2023-11-19T07:14:09;6.88;;;4.18;;
47153;SDS011;32907;41.412;2.164;2023-11-19T07:16:37;6.80;;;4.07;;
47153;SDS011;32907;41.412;2.164;2023-11-19T07:19:06;6.72;;;3.70;;
47153;SDS011;32907;41.412;2.164;2023-11-19T07:21:34;6.03;;;4.10;;
47153;SDS011;32907;41.412;2.164;2023-11-19T07:24:07;5.07;;;3.70;;
47153;SDS011;32907;41.412;2.164;2023-11-19T07:26:35;6.85;;;4.10;;
47153;SDS011;32907;41.412;2.164;2023-11-19T07:29:03;10.15;;;4.32;;
47153;SDS011;32907;41.412;2.164;2023-11-19T07:31:35;8.52;;;5.40;;
47153;SDS011;32907;41.412;2.164;2023-11-19T07:34:04;7.75;;;5.43;;
47153;SDS011;32907;41.412;2.164;2023-11-19T07:36:33;9.18;;;4.80;;
47153;SDS011;32907;41.412;2.164;2023-11-19T07:39:03;7.90;;;4.50;;
47153;SDS011;32907;41.412;2.164;2023-11-19T07:41:32;7.90;;;4.70;;
47153;SDS011;32907;41.412;2.164;2023-11-19T07:44:05;6.57;;;4.32;;
47153;SDS011;32907;41.412;2.164;2023-11-19T07:46:34;6.65;;;4.40;;
47153;SDS011;32907;41.412;2.164;2023-11-19T07:49:02;14.40;;;8.70;;
47153;SDS011;32907;41.412;2.164;2023-11-19T07:51:30;39.40;;;16.95;;
47153;SDS011;32907;41.412;2.164;2023-11-19T07:53:58;30.80;;;14.65;;
47153;SDS011;32907;41.412;2.164;2023-11-19T07:56:26;17.13;;;9.30;;
47153;SDS011;32907;41.412;2.164;2023-11-19T07:58:54;10.35;;;7.35;;
47153;SDS011;32907;41.412;2.164;2023-11-19T08:01:22;9.55;;;6.38;;
47153;SDS011;32907;41.412;2.164;2023-11-19T08:03:51;7.85;;;5.38;;
47153;SDS011;32907;41.412;2.164;2023-11-19T08:06:22;8.40;;;4.85;;
47153;SDS011;32907;41.412;2.164;2023-11-19T08:08:50;8.65;;;4.63;;
47153;SDS011;32907;41.412;2.164;2023-11-19T08:11:20;29.40;;;19.55;;
47153;SDS011;32907;41.412;2.164;2023-11-19T08:13:48;47.03;;;26.90;;
47153;SDS011;32907;41.412;2.164;2023-11-19T08:16:16;45.58;;;28.50;;
47153;SDS011;32907;41.412;2.164;2023-11-19T08:18:44;37.13;;;24.98;;
47153;SDS011;32907;41.412;2.164;2023-11-19T08:21:12;22.05;;;15.27;;
47153;SDS011;32907;41.412;2.164;2023-11-19T08:23:40;16.65;;;10.93;;
47153;SDS011;32907;41.412;2.164;2023-11-19T08:26:08;11.02;;;7.93;;
47153;SDS011;32907;41.412;2.164;2023-11-19T08:28:37;13.68;;;8.48;;
47153;SDS011;32907;41.412;2.164;2023-11-19T08:31:06;13.63;;;9.85;;
47153;SDS011;32907;41.412;2.164;2023-11-19T08:33:34;20.55;;;10.30;;
47153;SDS011;32907;41.412;2.164;2023-11-19T08:36:02;17.00;;;10.00;;
47153;SDS011;32907;41.412;2.164;2023-11-19T08:38:31;14.43;;;8.50;;
47153;SDS011;32907;41.412;2.164;2023-11-19T08:41:00;16.52;;;8.95;;
47153;SDS011;32907;41.412;2.164;2023-11-19T08:43:28;20.45;;;9.48;;
47153;SDS011;32907;41.412;2.164;2023-11-19T08:45:59;16.08;;;8.52;;
47153;SDS011;32907;41.412;2.164;2023-11-19T08:48:27;16.77;;;8.40;;
47153;SDS011;32907;41.412;2.164;2023-11-19T08:50:55;13.52;;;7.38;;
47153;SDS011;32907;41.412;2.164;2023-11-19T08:53:23;10.15;;;5.95;;
47153;SDS011;32907;41.412;2.164;2023-11-19T08:55:51;8.30;;;5.32;;
47153;SDS011;32907;41.412;2.164;2023-11-19T08:58:20;11.80;;;6.35;;
47153;SDS011;32907;41.412;2.164;2023-11-19T09:00:48;13.65;;;8.25;;
47153;SDS011;32907;41.412;2.164;2023-11-19T09:03:16;13.55;;;8.90;;
47153;SDS011;32907;41.412;2.164;2023-11-19T09:05:44;10.60;;;7.38;;
47153;SDS011;32907;41.412;2.164;2023-11-19T09:08:12;9.77;;;6.22;;
47153;SDS011;32907;41.412;2.164;2023-11-19T09:10:40;10.25;;;6.35;;
47153;SDS011;32907;41.412;2.164;2023-11-19T09:13:08;8.27;;;5.25;;
47153;SDS011;32907;41.412;2.164;2023-11-19T09:15:36;8.95;;;4.72;;
47153;SDS011;32907;41.412;2.164;2023-11-19T09:18:05;8.15;;;4.30;;
47153;SDS011;32907;41.412;2.164;2023-11-19T09:20:33;11.48;;;5.05;;
47153;SDS011;32907;41.412;2.164;2023-11-19T09:23:06;7.63;;;5.30;;
47153;SDS011;32907;41.412;2.164;2023-11-19T09:25:36;8.80;;;6.57;;
47153;SDS011;32907;41.412;2.164;2023-11-19T09:28:07;8.48;;;6.47;;
47153;SDS011;32907;41.412;2.164;2023-11-19T09:30:36;9.10;;;6.30;;
47153;SDS011;32907;41.412;2.164;2023-11-19T09:33:04;9.07;;;6.38;;
47153;SDS011;32907;41.412;2.164;2023-11-19T09:35:33;12.57;;;5.55;;
47153;SDS011;32907;41.412;2.164;2023-11-19T09:38:01;9.32;;;5.13;;
47153;SDS011;32907;41.412;2.164;2023-11-19T09:40:32;10.52;;;4.60;;
47153;SDS011;32907;41.412;2.164;2023-11-19T09:43:00;8.48;;;4.65;;
47153;SDS011;32907;41.412;2.164;2023-11-19T09:45:28;7.18;;;4.28;;
47153;SDS011;32907;41.412;2.164;2023-11-19T09:48:00;7.80;;;4.50;;
47153;SDS011;32907;41.412;2.164;2023-11-19T09:50:29;9.07;;;4.10;;
47153;SDS011;32907;41.412;2.164;2023-11-19T09:52:59;7.13;;;4.10;;
47153;SDS011;32907;41.412;2.164;2023-11-19T09:55:27;8.90;;;5.30;;
47153;SDS011;32907;41.412;2.164;2023-11-19T09:57:55;15.68;;;11.13;;
47153;SDS011;32907;41.412;2.164;2023-11-19T10:00:28;8.88;;;6.18;;
47153;SDS011;32907;41.412;2.164;2023-11-19T10:02:56;9.32;;;5.10;;
47153;SDS011;32907;41.412;2.164;2023-11-19T10:05:25;6.63;;;4.60;;
47153;SDS011;32907;41.412;2.164;2023-11-19T10:07:53;6.95;;;4.78;;
47153;SDS011;32907;41.412;2.164;2023-11-19T10:10:23;8.52;;;4.47;;
47153;SDS011;32907;41.412;2.164;2023-11-19T10:12:51;7.90;;;5.15;;
47153;SDS011;32907;41.412;2.164;2023-11-19T10:15:23;8.88;;;6.70;;
47153;SDS011;32907;41.412;2.164;2023-11-19T10:17:55;9.18;;;7.07;;
47153;SDS011;32907;41.412;2.164;2023-11-19T10:20:24;11.40;;;7.68;;
47153;SDS011;32907;41.412;2.164;2023-11-19T10:22:53;8.77;;;7.30;;
47153;SDS011;32907;41.412;2.164;2023-11-19T10:25:23;9.23;;;6.82;;
47153;SDS011;32907;41.412;2.164;2023-11-19T10:27:55;9.55;;;6.43;;
47153;SDS011;32907;41.412;2.164;2023-11-19T10:30:26;9.00;;;6.00;;
47153;SDS011;32907;41.412;2.164;2023-11-19T10:33:05;10.57;;;6.90;;
47153;SDS011;32907;41.412;2.164;2023-11-19T10:35:35;15.52;;;9.82;;
47153;SDS011;32907;41.412;2.164;2023-11-19T10:38:29;11.18;;;9.27;;
47153;SDS011;32907;41.412;2.164;2023-11-19T10:40:58;18.73;;;13.15;;
47153;SDS011;32907;41.412;2.164;2023-11-19T10:43:26;25.92;;;18.80;;
47153;SDS011;32907;41.412;2.164;2023-11-19T10:45:57;37.45;;;25.55;;
47153;SDS011;32907;41.412;2.164;2023-11-19T10:48:38;39.80;;;27.88;;
47153;SDS011;32907;41.412;2.164;2023-11-19T10:51:06;37.97;;;26.70;;
47153;SDS011;32907;41.412;2.164;2023-11-19T10:53:35;34.63;;;23.23;;
47153;SDS011;32907;41.412;2.164;2023-11-19T10:56:08;22.80;;;15.70;;
47153;SDS011;32907;41.412;2.164;2023-11-19T10:58:40;18.23;;;12.00;;
47153;SDS011;32907;41.412;2.164;2023-11-19T11:01:16;13.38;;;9.55;;
47153;SDS011;32907;41.412;2.164;2023-11-19T11:03:48;15.07;;;9.20;;
47153;SDS011;32907;41.412;2.164;2023-11-19T11:06:19;12.27;;;8.75;;
47153;SDS011;32907;41.412;2.164;2023-11-19T11:08:50;12.43;;;8.70;;
47153;SDS011;32907;41.412;2.164;2023-11-19T11:11:19;12.02;;;8.07;;
47153;SDS011;32907;41.412;2.164;2023-11-19T11:13:53;11.25;;;7.60;;
47153;SDS011;32907;41.412;2.164;2023-11-19T11:16:24;14.18;;;6.63;;
47153;SDS011;32907;41.412;2.164;2023-11-19T11:18:53;10.00;;;6.90;;
47153;SDS011;32907;41.412;2.164;2023-11-19T11:21:22;9.60;;;6.25;;
47153;SDS011;32907;41.412;2.164;2023-11-19T11:29:24;8.35;;;5.93;;
47153;SDS011;32907;41.412;2.164;2023-11-19T11:37:36;9.40;;;5.63;;
47153;SDS011;32907;41.412;2.164;2023-11-19T11:40:08;10.55;;;6.07;;
47153;SDS011;32907;41.412;2.164;2023-11-19T11:42:46;7.82;;;5.70;;
47153;SDS011;32907;41.412;2.164;2023-11-19T11:45:15;8.27;;;5.15;;
47153;SDS011;32907;41.412;2.164;2023-11-19T11:50:12;7.05;;;5.03;;
47153;SDS011;32907;41.412;2.164;2023-11-19T11:55:28;8.30;;;5.72;;
47153;SDS011;32907;41.412;2.164;2023-11-19T11:58:02;9.27;;;6.88;;
47153;SDS011;32907;41.412;2.164;2023-11-19T12:00:36;8.35;;;6.43;;
47153;SDS011;32907;41.412;2.164;2023-11-19T12:03:06;9.85;;;6.32;;
47153;SDS011;32907;41.412;2.164;2023-11-19T12:05:41;8.48;;;6.10;;
47153;SDS011;32907;41.412;2.164;2023-11-19T12:08:15;10.18;;;5.82;;
47153;SDS011;32907;41.412;2.164;2023-11-19T12:10:53;7.47;;;6.35;;
47153;SDS011;32907;41.412;2.164;2023-11-19T12:13:29;10.68;;;6.38;;
47153;SDS011;32907;41.412;2.164;2023-11-19T12:16:13;9.93;;;6.25;;
47153;SDS011;32907;41.412;2.164;2023-11-19T12:18:42;8.00;;;6.13;;
47153;SDS011;32907;41.412;2.164;2023-11-19T12:21:10;9.23;;;6.70;;
47153;SDS011;32907;41.412;2.164;2023-11-19T12:23:44;10.43;;;6.40;;
47153;SDS011;32907;41.412;2.164;2023-11-19T12:26:50;8.98;;;5.82;;
47153;SDS011;32907;41.412;2.164;2023-11-19T12:29:10;9.63;;;6.32;;
47153;SDS011;32907;41.412;2.164;2023-11-19T12:31:38;9.15;;;6.35;;
47153;SDS011;32907;41.412;2.164;2023-11-19T12:34:12;10.93;;;6.57;;
47153;SDS011;32907;41.412;2.164;2023-11-19T12:36:40;10.50;;;6.82;;
47153;SDS011;32907;41.412;2.164;2023-11-19T12:39:09;11.90;;;6.13;;
47153;SDS011;32907;41.412;2.164;2023-11-19T12:41:59;9.68;;;5.80;;
47153;SDS011;32907;41.412;2.164;2023-11-19T12:44:29;8.73;;;5.78;;
47153;SDS011;32907;41.412;2.164;2023-11-19T12:49:29;10.38;;;6.45;;
47153;SDS011;32907;41.412;2.164;2023-11-19T12:51:58;11.57;;;8.10;;
47153;SDS011;32907;41.412;2.164;2023-11-19T12:54:33;13.75;;;10.55;;
47153;SDS011;32907;41.412;2.164;2023-11-19T12:57:03;15.45;;;11.23;;
47153;SDS011;32907;41.412;2.164;2023-11-19T12:59:32;14.77;;;11.07;;
47153;SDS011;32907;41.412;2.164;2023-11-19T13:02:01;14.60;;;10.15;;
47153;SDS011;32907;41.412;2.164;2023-11-19T13:04:33;13.75;;;9.88;;
47153;SDS011;32907;41.412;2.164;2023-11-19T13:07:02;12.35;;;9.38;;
47153;SDS011;32907;41.412;2.164;2023-11-19T13:09:32;13.77;;;10.52;;
47153;SDS011;32907;41.412;2.164;2023-11-19T13:12:11;15.65;;;11.73;;
47153;SDS011;32907;41.412;2.164;2023-11-19T13:14:42;17.45;;;12.80;;
47153;SDS011;32907;41.412;2.164;2023-11-19T13:17:12;16.60;;;12.20;;
47153;SDS011;32907;41.412;2.164;2023-11-19T13:19:42;13.82;;;10.95;;
47153;SDS011;32907;41.412;2.164;2023-11-19T13:22:10;12.35;;;9.90;;
47153;SDS011;32907;41.412;2.164;2023-11-19T13:24:39;14.80;;;10.73;;
47153;SDS011;32907;41.412;2.164;2023-11-19T13:27:08;14.32;;;9.60;;
47153;SDS011;32907;41.412;2.164;2023-11-19T13:29:35;16.48;;;10.95;;
47153;SDS011;32907;41.412;2.164;2023-11-19T13:32:03;15.02;;;10.93;;
47153;SDS011;32907;41.412;2.164;2023-11-19T13:34:33;15.50;;;10.70;;
47153;SDS011;32907;41.412;2.164;2023-11-19T13:37:02;17.30;;;11.18;;
47153;SDS011;32907;41.412;2.164;2023-11-19T13:39:30;22.50;;;13.23;;
47153;SDS011;32907;41.412;2.164;2023-11-19T13:41:58;23.23;;;12.88;;
47153;SDS011;32907;41.412;2.164;2023-11-19T13:44:30;24.25;;;12.88;;
47153;SDS011;32907;41.412;2.164;2023-11-19T13:46:58;19.27;;;12.63;;
47153;SDS011;32907;41.412;2.164;2023-11-19T13:49:26;17.77;;;10.73;;
47153;SDS011;32907;41.412;2.164;2023-11-19T13:51:57;18.67;;;12.48;;
47153;SDS011;32907;41.412;2.164;2023-11-19T13:54:25;19.08;;;14.68;;
47153;SDS011;32907;41.412;2.164;2023-11-19T13:56:56;19.98;;;13.60;;
47153;SDS011;32907;41.412;2.164;2023-11-19T13:59:26;16.98;;;12.75;;
47153;SDS011;32907;41.412;2.164;2023-11-19T14:01:54;18.20;;;14.40;;
47153;SDS011;32907;41.412;2.164;2023-11-19T14:04:22;21.58;;;15.50;;
47153;SDS011;32907;41.412;2.164;2023-11-19T14:06:51;18.10;;;14.45;;
47153;SDS011;32907;41.412;2.164;2023-11-19T14:09:19;17.15;;;13.05;;
47153;SDS011;32907;41.412;2.164;2023-11-19T14:11:47;14.95;;;12.35;;
47153;SDS011;32907;41.412;2.164;2023-11-19T14:14:17;15.98;;;12.32;;
47153;SDS011;32907;41.412;2.164;2023-11-19T14:16:45;15.18;;;11.88;;
47153;SDS011;32907;41.412;2.164;2023-11-19T14:19:13;13.65;;;10.55;;
47153;SDS011;32907;41.412;2.164;2023-11-19T14:21:42;12.88;;;10.23;;
47153;SDS011;32907;41.412;2.164;2023-11-19T14:24:10;14.65;;;10.27;;
47153;SDS011;32907;41.412;2.164;2023-11-19T14:26:38;16.73;;;11.55;;
47153;SDS011;32907;41.412;2.164;2023-11-19T14:29:06;15.25;;;10.18;;
47153;SDS011;32907;41.412;2.164;2023-11-19T14:31:34;13.82;;;10.23;;
47153;SDS011;32907;41.412;2.164;2023-11-19T14:34:03;15.10;;;10.38;;
47153;SDS011;32907;41.412;2.164;2023-11-19T14:36:31;12.52;;;9.30;;
47153;SDS011;32907;41.412;2.164;2023-11-19T14:38:59;14.00;;;8.98;;
47153;SDS011;32907;41.412;2.164;2023-11-19T14:41:28;15.57;;;10.98;;
47153;SDS011;32907;41.412;2.164;2023-11-19T14:43:56;15.25;;;11.85;;
47153;SDS011;32907;41.412;2.164;2023-11-19T14:46:24;17.00;;;12.60;;
47153;SDS011;32907;41.412;2.164;2023-11-19T14:48:53;18.90;;;13.38;;
47153;SDS011;32907;41.412;2.164;2023-11-19T14:51:21;14.82;;;11.65;;
47153;SDS011;32907;41.412;2.164;2023-11-19T14:53:49;15.43;;;11.13;;
47153;SDS011;32907;41.412;2.164;2023-11-19T14:56:18;14.25;;;10.38;;
47153;SDS011;32907;41.412;2.164;2023-11-19T14:58:46;12.50;;;9.10;;
47153;SDS011;32907;41.412;2.164;2023-11-19T15:01:14;14.48;;;9.32;;
47153;SDS011;32907;41.412;2.164;2023-11-19T15:03:44;12.88;;;9.73;;
47153;SDS011;32907;41.412;2.164;2023-11-19T15:06:15;12.43;;;9.45;;
47153;SDS011;32907;41.412;2.164;2023-11-19T15:08:43;11.82;;;9.63;;
47153;SDS011;32907;41.412;2.164;2023-11-19T15:11:12;28.67;;;15.30;;
47153;SDS011;32907;41.412;2.164;2023-11-19T15:13:40;44.95;;;19.60;;